Time;durP1;ratioP1;P1;durP2;ratioP2;P2;SDS_P1;SDS_P2;PMS_P1;PMS_P2;Temp;Humidity;BMP_temperature;BMP_pressure;BME280_temperature;BME280_humidity;BME280_pressure;Samples;Min_cycle;Max_cycle;Signal;HPM_P1;HPM_P2
2023/06/21 00:00:45;;;;;;;;;;;;;;;27.00;44.33;101134.13;5047556;28;19913;-73
2023/06/21 00:03:10;;;;;;;;;;;;;;;27.00;44.12;101140.41;5061977;28;20043;-72
2023/06/21 00:05:38;;;;;;;;;;;;;;;27.00;44.01;101140.41;5072667;28;20029;-72
2023/06/21 00:08:03;;;;;;;;;;;;;;;26.99;44.09;101141.47;5059907;28;19976;-72
2023/06/21 00:10:29;;;;;;;;;;;;;;;26.98;44.05;101139.81;5051962;28;19924;-72
2023/06/21 00:12:54;;;;;;;;;;;;;;;26.98;44.46;101136.25;5063671;28;20003;-72
2023/06/21 00:15:20;;;;;;;;;;;;;;;26.98;44.37;101136.25;5064105;28;19936;-72
2023/06/21 00:17:45;;;;;;;;;;;;;;;26.97;44.14;101143.56;5051295;28;19923;-72
2023/06/21 00:20:10;;;;;;;;;;;;;;;26.97;44.27;101148.19;5068403;28;19921;-72
2023/06/21 00:22:39;;;;;;;;;;;;;;;26.96;44.11;101147.38;5042801;28;19920;-72
2023/06/21 00:25:05;;;;;;;;;;;;;;;26.96;44.17;101151.97;5069396;28;19938;-72
2023/06/21 00:27:30;;;;;;;;;;;;;;;26.96;44.23;101146.53;5068335;28;19913;-72
2023/06/21 00:29:55;;;;;;;;;;;;;;;26.95;44.33;101137.50;5053752;28;19913;-73
2023/06/21 00:32:20;;;;;;;;;;;;;;;26.95;44.35;101137.50;5075826;28;19978;-72
2023/06/21 00:34:47;;;;;;;;;;;;;;;26.94;44.35;101141.28;5059904;28;19956;-72
2023/06/21 00:37:12;;;;;;;;;;;;;;;26.94;44.25;101141.28;5064927;28;19919;-72
2023/06/21 00:39:38;;;;;;;;;;;;;;;26.94;44.17;101144.03;5067935;28;20586;-72
2023/06/21 00:42:04;;;;;;;;;;;;;;;26.94;44.30;101140.47;5062656;28;19916;-72
2023/06/21 00:44:29;;;;;;;;;;;;;;;26.92;44.20;101144.22;5065498;28;19920;-72
2023/06/21 00:46:54;;;;;;;;;;;;;;;26.92;44.12;101151.56;5065243;28;19913;-72
2023/06/21 00:49:19;;;;;;;;;;;;;;;26.91;44.20;101153.47;5063990;28;19913;-72
2023/06/21 00:51:44;;;;;;;;;;;;;;;26.91;44.36;101156.19;5049075;28;19913;-72
2023/06/21 00:54:15;;;;;;;;;;;;;;;26.91;44.09;101160.81;5058575;28;19920;-72
2023/06/21 00:56:41;;;;;;;;;;;;;;;26.90;44.12;101168.16;5040862;28;19959;-72
2023/06/21 00:59:06;;;;;;;;;;;;;;;26.90;44.19;101168.16;5074966;28;20335;-72
2023/06/21 01:01:31;;;;;;;;;;;;;;;26.90;44.21;101183.72;5063218;28;19913;-72
2023/06/21 01:03:57;;;;;;;;;;;;;;;26.89;44.29;101177.41;5060254;28;20333;-72
2023/06/21 01:06:45;;;;;;;;;;;;;;;26.88;44.10;101186.63;5070727;28;19921;-72
2023/06/21 01:09:26;;;;;;;;;;;;;;;26.89;44.18;101177.41;4999900;28;19914;-72
2023/06/21 01:12:02;;;;;;;;;;;;;;;26.88;44.37;101180.34;4992090;28;19921;-72
2023/06/21 01:14:32;;;;;;;;;;;;;;;26.87;44.18;101182.25;4991179;28;19981;-72
2023/06/21 01:16:57;;;;;;;;;;;;;;;26.86;44.25;101180.56;4990902;28;19933;-72
2023/06/21 01:19:25;;;;;;;;;;;;;;;26.86;44.08;101179.75;4987992;28;20016;-72
2023/06/21 01:21:50;;;;;;;;;;;;;;;26.85;44.14;101181.63;5007102;28;20028;-72
2023/06/21 01:24:15;;;;;;;;;;;;;;;26.85;44.09;101187.09;4990214;28;19997;-72
2023/06/21 01:26:43;;;;;;;;;;;;;;;26.85;44.05;101181.63;5011453;28;20008;-72
2023/06/21 01:29:12;;;;;;;;;;;;;;;26.84;44.08;101184.56;4998509;28;19994;-71
2023/06/21 01:31:39;;;;;;;;;;;;;;;26.83;44.32;101191.91;4990444;28;19968;-72
2023/06/21 01:34:04;;;;;;;;;;;;;;;26.83;44.24;101189.19;4994612;28;20403;-72
2023/06/21 01:36:29;;;;;;;;;;;;;;;26.83;44.14;101194.63;5006732;28;19952;-71
2023/06/21 01:38:57;;;;;;;;;;;;;;;26.82;44.18;101192.13;5005621;28;19913;-72
2023/06/21 01:41:25;;;;;;;;;;;;;;;26.82;44.31;101192.13;4990935;28;19918;-72
2023/06/21 01:43:51;;;;;;;;;;;;;;;26.81;44.12;101204.94;4990954;28;19945;-71
2023/06/21 01:46:16;;;;;;;;;;;;;;;26.81;44.22;101204.94;5016767;28;19917;-72
2023/06/21 01:48:41;;;;;;;;;;;;;;;26.80;44.19;101210.59;5051740;28;19917;-71
2023/06/21 01:51:07;;;;;;;;;;;;;;;26.79;44.08;101217.94;5056857;28;19920;-72
2023/06/21 01:53:32;;;;;;;;;;;;;;;26.80;44.35;101205.97;5038791;28;19913;-72
2023/06/21 01:55:57;;;;;;;;;;;;;;;26.78;44.29;101219.00;5062440;28;19919;-71
2023/06/21 01:58:23;;;;;;;;;;;;;;;26.78;44.17;101221.72;5058223;28;20007;-71
2023/06/21 02:00:48;;;;;;;;;;;;;;;26.77;44.33;101225.50;5070516;28;19938;-72
2023/06/21 02:03:15;;;;;;;;;;;;;;;26.78;44.13;101218.16;5056666;28;19913;-72
2023/06/21 02:05:40;;;;;;;;;;;;;;;26.76;44.37;101223.84;5068423;28;19917;-72
2023/06/21 02:08:15;;;;;;;;;;;;;;;26.76;44.19;101226.56;5061828;28;19913;-72
2023/06/21 02:10:40;;;;;;;;;;;;;;;26.75;44.22;101227.59;5050267;28;19992;-72
2023/06/21 02:13:06;;;;;;;;;;;;;;;26.74;43.95;101225.09;5062323;28;19912;-71
2023/06/21 02:15:31;;;;;;;;;;;;;;;26.73;44.28;101229.72;5066452;28;19942;-71
2023/06/21 02:17:56;;;;;;;;;;;;;;;26.71;44.28;101231.81;5056890;28;19913;-71
2023/06/21 02:20:22;;;;;;;;;;;;;;;26.71;44.27;101237.25;5069480;28;20320;-72
2023/06/21 02:22:47;;;;;;;;;;;;;;;26.71;44.17;101241.88;5065099;28;19948;-72
2023/06/21 02:25:13;;;;;;;;;;;;;;;26.71;44.28;101239.16;5051621;28;19921;-72
2023/06/21 02:27:38;;;;;;;;;;;;;;;26.70;44.30;101234.75;5073231;28;19924;-72
2023/06/21 02:30:04;;;;;;;;;;;;;;;26.69;44.21;101239.38;5058491;28;19920;-72
2023/06/21 02:32:30;;;;;;;;;;;;;;;26.68;44.07;101243.16;5046257;28;19934;-72
2023/06/21 02:34:55;;;;;;;;;;;;;;;26.67;44.35;101247.75;5064771;28;19913;-72
2023/06/21 02:37:20;;;;;;;;;;;;;;;26.67;44.31;101238.72;5061412;28;19984;-72
2023/06/21 02:39:45;;;;;;;;;;;;;;;26.67;44.04;101253.22;5064208;28;19912;-72
2023/06/21 02:42:11;;;;;;;;;;;;;;;26.66;44.39;101247.97;5064377;28;19912;-72
2023/06/21 02:44:36;;;;;;;;;;;;;;;26.65;44.24;101258.06;5042472;28;19981;-72
2023/06/21 02:47:01;;;;;;;;;;;;;;;26.64;44.19;101258.28;5061631;28;19913;-71
2023/06/21 02:49:26;;;;;;;;;;;;;;;26.64;44.19;101261.84;5068131;28;19913;-72
2023/06/21 02:51:52;;;;;;;;;;;;;;;26.63;44.42;101265.63;5051786;28;19936;-72
2023/06/21 02:54:17;;;;;;;;;;;;;;;26.63;44.12;101262.03;5069948;28;19920;-71
2023/06/21 02:56:43;;;;;;;;;;;;;;;26.63;44.20;101275.66;5061106;28;19917;-71
2023/06/21 02:59:08;;;;;;;;;;;;;;;26.62;44.02;101274.00;5060452;28;19921;-72
2023/06/21 03:01:33;;;;;;;;;;;;;;;26.61;44.28;101269.59;5069502;28;19988;-72
2023/06/21 03:03:58;;;;;;;;;;;;;;;26.60;44.34;101268.75;5058795;28;20323;-71
2023/06/21 03:06:24;;;;;;;;;;;;;;;26.60;44.22;101285.13;5062145;28;19929;-71
2023/06/21 03:08:51;;;;;;;;;;;;;;;26.60;44.29;101282.41;5045578;28;19917;-71
2023/06/21 03:11:16;;;;;;;;;;;;;;;26.59;44.08;101280.72;5068328;28;19920;-72
2023/06/21 03:13:41;;;;;;;;;;;;;;;26.59;44.14;101285.31;5064082;28;19913;-72
2023/06/21 03:16:07;;;;;;;;;;;;;;;26.58;44.08;101289.94;5072697;28;20396;-72
2023/06/21 03:18:32;;;;;;;;;;;;;;;26.58;44.24;101292.66;5042836;28;19944;-72
2023/06/21 03:21:00;;;;;;;;;;;;;;;26.58;44.34;101300.00;5071721;28;19921;-72
2023/06/21 03:23:26;;;;;;;;;;;;;;;26.57;44.16;101293.72;5068559;28;19967;-72
2023/06/21 03:25:51;;;;;;;;;;;;;;;26.56;44.13;101294.78;5058296;28;19920;-72
2023/06/21 03:28:16;;;;;;;;;;;;;;;26.56;44.23;101293.94;5073472;28;19916;-72
2023/06/21 03:30:41;;;;;;;;;;;;;;;26.56;44.42;101302.13;5060527;28;19917;-71
2023/06/21 03:33:07;;;;;;;;;;;;;;;26.54;44.19;101296.84;5067239;28;20300;-71
2023/06/21 03:35:32;;;;;;;;;;;;;;;26.55;44.25;101297.69;5054461;28;19913;-72
2023/06/21 03:37:57;;;;;;;;;;;;;;;26.55;44.31;101294.97;5049736;28;19912;-72
2023/06/21 03:40:22;;;;;;;;;;;;;;;26.54;44.00;101304.19;5044486;28;19948;-72
2023/06/21 03:42:48;;;;;;;;;;;;;;;26.53;44.29;101308.81;5055936;28;19921;-72
2023/06/21 03:45:13;;;;;;;;;;;;;;;26.53;44.12;101321.63;5063559;28;19921;-72
2023/06/21 03:47:39;;;;;;;;;;;;;;;26.52;44.27;101328.97;5064972;28;19950;-72
2023/06/21 03:50:05;;;;;;;;;;;;;;;26.51;44.28;101319.13;5071886;28;19998;-72
2023/06/21 03:52:30;;;;;;;;;;;;;;;26.52;44.17;101333.59;5055766;28;19957;-72
2023/06/21 03:54:55;;;;;;;;;;;;;;;26.51;44.21;101338.22;5075241;28;19962;-72
2023/06/21 03:57:20;;;;;;;;;;;;;;;26.50;44.32;101333.78;5062579;28;19920;-72
2023/06/21 03:59:45;;;;;;;;;;;;;;;26.50;44.13;101336.50;5065956;28;20317;-72
2023/06/21 04:02:11;;;;;;;;;;;;;;;26.50;44.01;101341.13;5069340;28;20003;-71
2023/06/21 04:04:36;;;;;;;;;;;;;;;26.50;44.12;101338.41;5067863;28;19923;-71
2023/06/21 04:07:01;;;;;;;;;;;;;;;26.50;44.14;101349.31;5063196;28;19913;-72
2023/06/21 04:09:26;;;;;;;;;;;;;;;26.49;44.28;101348.47;5067812;28;19912;-72
2023/06/21 04:11:51;;;;;;;;;;;;;;;26.48;44.33;101346.78;5067378;28;20392;-71
2023/06/21 04:14:18;;;;;;;;;;;;;;;26.49;44.43;101350.34;5040479;28;19920;-72
2023/06/21 04:16:43;;;;;;;;;;;;;;;26.47;44.27;101353.31;5074478;28;19944;-72
2023/06/21 04:19:08;;;;;;;;;;;;;;;26.47;44.09;101352.47;5057582;28;20386;-71
2023/06/21 04:21:35;;;;;;;;;;;;;;;26.46;44.09;101351.59;5055328;28;21589;-71
2023/06/21 04:24:00;;;;;;;;;;;;;;;26.47;44.26;101347.00;5065441;28;19943;-72
2023/06/21 04:26:28;;;;;;;;;;;;;;;26.46;44.11;101345.31;5062518;28;19924;-72
2023/06/21 04:28:54;;;;;;;;;;;;;;;26.46;44.27;101339.84;5069030;28;19917;-72
2023/06/21 04:31:19;;;;;;;;;;;;;;;26.45;44.07;101341.75;5063561;28;20385;-72
2023/06/21 04:33:44;;;;;;;;;;;;;;;26.45;44.23;101349.94;5063289;28;20208;-72
2023/06/21 04:36:09;;;;;;;;;;;;;;;26.44;44.22;101356.44;5066471;28;19924;-71
2023/06/21 04:38:35;;;;;;;;;;;;;;;26.43;44.28;101347.38;5069310;28;19921;-72
2023/06/21 04:41:00;;;;;;;;;;;;;;;26.44;44.35;101350.97;5058742;28;19912;-72
2023/06/21 04:43:25;;;;;;;;;;;;;;;26.43;44.13;101354.72;5074212;28;19923;-72
2023/06/21 04:45:51;;;;;;;;;;;;;;;26.42;44.17;101356.63;5061785;28;19922;-72
2023/06/21 04:48:16;;;;;;;;;;;;;;;26.42;44.20;101353.03;5065048;28;19912;-72
2023/06/21 04:50:45;;;;;;;;;;;;;;;26.42;44.07;101359.34;5055760;28;19998;-72
2023/06/21 04:53:13;;;;;;;;;;;;;;;26.41;44.18;101362.25;5057676;28;19923;-71
2023/06/21 04:55:42;;;;;;;;;;;;;;;26.40;44.21;101364.16;5056914;28;19951;-71
2023/06/21 04:58:09;;;;;;;;;;;;;;;26.41;44.27;101367.72;5060307;28;19916;-72
2023/06/21 05:00:34;;;;;;;;;;;;;;;26.40;44.44;101379.69;5064484;28;19913;-71
2023/06/21 05:02:59;;;;;;;;;;;;;;;26.38;44.24;101377.16;5066838;28;19972;-71
2023/06/21 05:05:25;;;;;;;;;;;;;;;26.39;44.30;101388.91;5069794;28;19921;-71
2023/06/21 05:07:50;;;;;;;;;;;;;;;26.39;44.12;101388.91;5039104;28;19914;-71
2023/06/21 05:10:15;;;;;;;;;;;;;;;26.39;44.03;101394.38;5071955;28;19912;-72
2023/06/21 05:12:40;;;;;;;;;;;;;;;26.38;44.26;101395.41;5063388;28;19991;-72
2023/06/21 05:15:06;;;;;;;;;;;;;;;26.38;44.22;101389.97;5063617;28;19920;-71
2023/06/21 05:17:31;;;;;;;;;;;;;;;26.37;44.21;101386.38;5072375;28;19939;-71
2023/06/21 05:19:56;;;;;;;;;;;;;;;26.38;43.98;101381.78;5055933;28;19921;-71
2023/06/21 05:22:21;;;;;;;;;;;;;;;26.38;44.12;101392.69;5068906;28;19982;-71
2023/06/21 05:24:46;;;;;;;;;;;;;;;26.36;44.14;101401.06;5063110;28;19972;-72
2023/06/21 05:27:12;;;;;;;;;;;;;;;26.37;44.13;101404.63;5064326;28;20369;-71
2023/06/21 05:29:37;;;;;;;;;;;;;;;26.37;44.17;101408.19;5067632;28;19917;-72
2023/06/21 05:32:02;;;;;;;;;;;;;;;26.37;44.16;101405.47;5067426;28;19940;-72
2023/06/21 05:34:28;;;;;;;;;;;;;;;26.38;44.14;101400.88;5041691;28;19920;-71
2023/06/21 05:36:54;;;;;;;;;;;;;;;26.37;44.25;101400.00;5069274;28;19928;-72
2023/06/21 05:39:19;;;;;;;;;;;;;;;26.37;44.29;101391.00;5068069;28;19916;-71
2023/06/21 05:41:44;;;;;;;;;;;;;;;26.38;44.19;101403.59;5052264;28;19913;-71
2023/06/21 05:44:10;;;;;;;;;;;;;;;26.36;44.26;101401.06;5072699;28;20376;-72
2023/06/21 05:46:35;;;;;;;;;;;;;;;26.37;44.21;101410.06;5059905;28;19917;-72
2023/06/21 05:49:01;;;;;;;;;;;;;;;26.36;44.25;101411.97;5067744;28;19922;-71
2023/06/21 05:51:26;;;;;;;;;;;;;;;26.36;43.97;101417.41;5067073;28;19916;-71
2023/06/21 05:53:51;;;;;;;;;;;;;;;26.36;44.26;101416.59;5062086;28;19920;-71
2023/06/21 05:56:16;;;;;;;;;;;;;;;26.36;44.29;101422.03;5065863;28;19976;-71
2023/06/21 05:58:42;;;;;;;;;;;;;;;26.35;44.35;101417.63;5064190;28;19913;-71
2023/06/21 06:01:07;;;;;;;;;;;;;;;26.34;44.21;101414.06;5063363;28;19999;-71
2023/06/21 06:03:32;;;;;;;;;;;;;;;26.34;44.26;101419.53;5063421;28;19912;-71
2023/06/21 06:05:57;;;;;;;;;;;;;;;26.34;44.32;101421.41;5067857;28;20331;-71
2023/06/21 06:08:22;;;;;;;;;;;;;;;26.33;44.07;101428.72;5055987;28;19913;-71
2023/06/21 06:10:48;;;;;;;;;;;;;;;26.33;44.34;101441.53;5073734;28;20220;-71
2023/06/21 06:13:13;;;;;;;;;;;;;;;26.33;44.17;101441.53;5061429;28;19913;-71
2023/06/21 06:15:38;;;;;;;;;;;;;;;26.31;44.14;101439.00;5039218;28;19925;-71
2023/06/21 06:18:03;;;;;;;;;;;;;;;26.33;44.24;101446.97;5071000;28;19913;-71
2023/06/21 06:20:29;;;;;;;;;;;;;;;26.32;44.17;101448.88;5059229;28;19913;-70
2023/06/21 06:22:54;;;;;;;;;;;;;;;26.32;44.06;101439.84;5066965;28;19913;-70
2023/06/21 06:25:19;;;;;;;;;;;;;;;26.32;44.27;101451.59;5063295;28;20263;-71
2023/06/21 06:27:45;;;;;;;;;;;;;;;26.32;44.24;101456.19;5066265;28;19944;-71
2023/06/21 06:30:10;;;;;;;;;;;;;;;26.32;44.13;101461.66;5043164;28;19913;-71
2023/06/21 06:32:36;;;;;;;;;;;;;;;26.32;44.13;101469.84;5069313;28;19920;-70
2023/06/21 06:35:01;;;;;;;;;;;;;;;26.32;44.30;101475.28;5058756;28;19913;-72
2023/06/21 06:37:26;;;;;;;;;;;;;;;26.31;44.29;101471.72;5064034;28;20262;-72
2023/06/21 06:39:53;;;;;;;;;;;;;;;26.30;44.28;101471.94;5067006;28;19960;-72
2023/06/21 06:42:18;;;;;;;;;;;;;;;26.29;44.18;101471.06;5058193;28;19980;-72
2023/06/21 06:44:43;;;;;;;;;;;;;;;26.29;44.27;101475.69;5074240;28;19913;-72
2023/06/21 06:47:09;;;;;;;;;;;;;;;26.29;44.42;101481.97;5049754;28;20003;-72
2023/06/21 06:49:34;;;;;;;;;;;;;;;26.29;44.20;101486.59;5063541;28;19914;-72
2023/06/21 06:51:59;;;;;;;;;;;;;;;26.29;44.30;101483.88;5066779;28;19913;-72
2023/06/21 06:54:25;;;;;;;;;;;;;;;26.28;44.41;101483.03;5063606;28;19916;-71
2023/06/21 06:56:50;;;;;;;;;;;;;;;26.28;44.37;101482.19;5061545;28;19978;-71
2023/06/21 06:59:15;;;;;;;;;;;;;;;26.27;44.18;101481.34;5066795;28;20010;-71
2023/06/21 07:01:41;;;;;;;;;;;;;;;26.28;44.38;101490.38;5063188;28;19913;-71
2023/06/21 07:04:06;;;;;;;;;;;;;;;26.26;44.13;101489.75;5060592;28;19940;-71
2023/06/21 07:06:31;;;;;;;;;;;;;;;26.27;44.28;101494.16;5070979;28;20028;-71
2023/06/21 07:08:56;;;;;;;;;;;;;;;26.26;44.16;101495.19;5054067;28;19986;-71
2023/06/21 07:11:21;;;;;;;;;;;;;;;26.26;44.43;101503.38;5071142;28;19919;-71
2023/06/21 07:13:46;;;;;;;;;;;;;;;26.26;44.25;101506.09;5062032;28;19917;-73
2023/06/21 07:16:12;;;;;;;;;;;;;;;26.25;44.35;101501.66;5058722;28;19940;-72
2023/06/21 07:18:37;;;;;;;;;;;;;;;26.24;44.27;101502.72;5070415;28;19951;-71
2023/06/21 07:21:02;;;;;;;;;;;;;;;26.24;44.42;101495.38;5061794;28;19944;-71
2023/06/21 07:23:29;;;;;;;;;;;;;;;26.24;44.39;101500.84;5061029;28;19976;-71
2023/06/21 07:25:54;;;;;;;;;;;;;;;26.24;44.32;101506.28;5064412;28;19921;-72
2023/06/21 07:28:19;;;;;;;;;;;;;;;26.24;44.22;101511.75;5064871;28;20078;-72
2023/06/21 07:30:45;;;;;;;;;;;;;;;26.23;44.42;101518.25;5040902;28;19913;-72
2023/06/21 07:33:10;;;;;;;;;;;;;;;26.23;44.52;101520.97;5070079;28;19983;-72
2023/06/21 07:35:35;;;;;;;;;;;;;;;26.23;44.46;101523.69;5058698;28;19943;-73
2023/06/21 07:38:00;;;;;;;;;;;;;;;26.23;44.44;101529.16;5065676;28;19920;-73
2023/06/21 07:40:25;;;;;;;;;;;;;;;26.23;44.28;101523.69;5066322;28;19914;-73
2023/06/21 07:42:51;;;;;;;;;;;;;;;26.22;44.26;101527.47;5055659;28;19972;-73
2023/06/21 07:45:16;;;;;;;;;;;;;;;26.22;44.45;101523.91;5068508;28;19921;-73
2023/06/21 07:47:41;;;;;;;;;;;;;;;26.22;44.54;101523.91;5058954;28;19913;-73
2023/06/21 07:50:06;;;;;;;;;;;;;;;26.21;44.35;101525.78;5048384;28;20385;-73
2023/06/21 07:52:32;;;;;;;;;;;;;;;26.22;44.50;101537.53;5066663;28;19970;-73
2023/06/21 07:54:57;;;;;;;;;;;;;;;26.21;44.40;101533.97;5067061;28;20434;-73
2023/06/21 07:57:22;;;;;;;;;;;;;;;26.21;44.54;101544.88;5060425;28;20366;-73
2023/06/21 07:59:48;;;;;;;;;;;;;;;26.22;44.52;101537.53;5071993;28;19924;-73
2023/06/21 08:02:18;;;;;;;;;;;;;;;26.21;44.50;101536.69;5065926;28;19917;-73
2023/06/21 08:04:44;;;;;;;;;;;;;;;26.21;44.56;101536.69;5063985;28;19919;-73
2023/06/21 08:07:09;;;;;;;;;;;;;;;26.21;44.57;101542.16;5060103;28;19917;-73
2023/06/21 08:09:35;;;;;;;;;;;;;;;26.22;44.62;101543.00;5050961;28;19913;-73
2023/06/21 08:12:00;;;;;;;;;;;;;;;26.22;44.48;101543.00;5071593;28;19912;-73
2023/06/21 08:14:25;;;;;;;;;;;;;;;26.21;44.55;101544.00;5065085;28;19917;-73
2023/06/21 08:16:50;;;;;;;;;;;;;;;26.22;44.44;101543.00;5064984;28;19924;-73
2023/06/21 08:19:16;;;;;;;;;;;;;;;26.21;44.55;101541.28;5053344;28;19924;-73
2023/06/21 08:21:41;;;;;;;;;;;;;;;26.21;44.58;101538.56;5066923;28;19917;-73
2023/06/21 08:24:06;;;;;;;;;;;;;;;26.22;44.57;101556.63;5061640;28;20374;-73
2023/06/21 08:26:31;;;;;;;;;;;;;;;26.21;44.53;101555.78;5053902;28;19983;-73
2023/06/21 08:28:56;;;;;;;;;;;;;;;26.22;44.48;101559.34;5068155;28;19916;-73
2023/06/21 08:31:22;;;;;;;;;;;;;;;26.21;44.57;101557.63;5057595;28;19913;-73
2023/06/21 08:33:47;;;;;;;;;;;;;;;26.21;44.50;101563.97;5076295;28;19917;-73
2023/06/21 08:36:12;;;;;;;;;;;;;;;26.21;44.64;101569.41;5060403;28;19917;-73
2023/06/21 08:38:38;;;;;;;;;;;;;;;26.22;44.45;101572.97;5065432;28;19935;-73
2023/06/21 08:41:03;;;;;;;;;;;;;;;26.21;44.57;101563.97;5056153;28;20358;-73
2023/06/21 08:43:29;;;;;;;;;;;;;;;26.21;44.56;101569.41;5050630;28;19917;-73
2023/06/21 08:45:57;;;;;;;;;;;;;;;26.22;44.72;101578.44;5050602;28;19923;-73
2023/06/21 08:48:22;;;;;;;;;;;;;;;26.22;44.45;101573.81;5063884;28;19912;-73
2023/06/21 08:50:48;;;;;;;;;;;;;;;26.21;44.60;101580.31;5064668;28;19923;-73
2023/06/21 08:53:13;;;;;;;;;;;;;;;26.22;44.32;101575.69;5034382;28;19924;-73
2023/06/21 08:55:39;;;;;;;;;;;;;;;26.21;44.46;101577.59;5053583;28;19917;-73
2023/06/21 08:58:06;;;;;;;;;;;;;;;26.21;44.39;101584.91;5039128;28;19913;-73
2023/06/21 09:00:59;;;;;;;;;;;;;;;26.22;44.46;101581.16;5056433;28;19988;-73
2023/06/21 09:03:29;;;;;;;;;;;;;;;26.22;44.54;101581.16;5057497;28;19920;-73
2023/06/21 09:05:55;;;;;;;;;;;;;;;26.22;44.33;101581.16;5050380;28;19916;-73
2023/06/21 09:08:20;;;;;;;;;;;;;;;26.23;44.45;101585.56;5066024;28;19938;-73
2023/06/21 09:10:46;;;;;;;;;;;;;;;26.22;44.40;101582.00;5060120;28;19920;-73
2023/06/21 09:13:11;;;;;;;;;;;;;;;26.23;44.45;101589.13;5053618;28;20389;-73
2023/06/21 09:15:37;;;;;;;;;;;;;;;26.23;44.41;101578.22;5044814;28;19924;-73
2023/06/21 09:18:02;;;;;;;;;;;;;;;26.24;44.52;101581.78;5063832;28;19927;-73
2023/06/21 09:20:28;;;;;;;;;;;;;;;26.24;44.31;101582.63;5047330;28;19913;-73
2023/06/21 09:22:57;;;;;;;;;;;;;;;26.24;44.35;101582.63;5051752;28;19913;-73
2023/06/21 09:25:22;;;;;;;;;;;;;;;26.24;44.52;101579.88;5056364;28;19928;-73
2023/06/21 09:27:48;;;;;;;;;;;;;;;26.25;44.46;101583.44;5054567;28;19920;-73
2023/06/21 09:30:13;;;;;;;;;;;;;;;26.26;44.56;101585.16;5062605;28;19917;-73
2023/06/21 09:32:39;;;;;;;;;;;;;;;26.25;44.34;101592.50;5061502;28;19919;-73
2023/06/21 09:35:04;;;;;;;;;;;;;;;26.25;44.54;101581.59;5070313;28;19908;-73
2023/06/21 09:37:33;;;;;;;;;;;;;;;26.26;44.33;101586.00;5057458;28;19952;-72
2023/06/21 09:39:58;;;;;;;;;;;;;;;26.26;44.57;101596.91;5069795;28;19917;-73
2023/06/21 09:42:24;;;;;;;;;;;;;;;26.27;44.59;101590.41;5044434;28;19955;-72
2023/06/21 09:44:49;;;;;;;;;;;;;;;26.27;44.60;101587.66;5045204;28;19947;-72
2023/06/21 09:47:14;;;;;;;;;;;;;;;26.28;44.42;101586.63;5063622;28;20350;-72
2023/06/21 09:49:44;;;;;;;;;;;;;;;26.28;44.60;101594.81;5066212;28;19928;-72
2023/06/21 09:52:10;;;;;;;;;;;;;;;26.29;44.44;101595.63;5048190;28;19917;-72
2023/06/21 09:54:41;;;;;;;;;;;;;;;26.29;44.51;101599.19;5069369;28;19951;-72
2023/06/21 09:57:06;;;;;;;;;;;;;;;26.29;44.37;101598.38;5043163;28;19913;-72
2023/06/21 09:59:32;;;;;;;;;;;;;;;26.29;44.60;101587.47;5056888;28;19945;-72
2023/06/21 10:01:57;;;;;;;;;;;;;;;26.29;44.56;101591.03;5071129;28;19959;-72
2023/06/21 10:04:23;;;;;;;;;;;;;;;26.30;44.60;101600.91;5038626;28;19913;-72
2023/06/21 10:06:49;;;;;;;;;;;;;;;26.31;44.59;101604.47;5069817;28;19980;-72
2023/06/21 10:09:14;;;;;;;;;;;;;;;26.31;44.69;101609.94;5062969;28;19917;-72
2023/06/21 10:11:43;;;;;;;;;;;;;;;26.31;44.60;101609.94;5064454;28;19920;-72
2023/06/21 10:14:16;;;;;;;;;;;;;;;26.33;44.82;101607.81;5047786;28;19952;-72
2023/06/21 10:16:41;;;;;;;;;;;;;;;26.34;44.58;101612.25;5060942;28;19932;-72
2023/06/21 10:19:06;;;;;;;;;;;;;;;26.33;44.51;101605.94;5053963;28;19913;-72
2023/06/21 10:21:33;;;;;;;;;;;;;;;26.34;44.69;101604.06;5062231;28;19912;-72
2023/06/21 10:24:01;;;;;;;;;;;;;;;26.34;44.59;101606.81;5062215;28;19919;-72
2023/06/21 10:26:26;;;;;;;;;;;;;;;26.34;44.65;101609.53;5033653;28;20378;-72
2023/06/21 10:28:54;;;;;;;;;;;;;;;26.33;44.66;101605.94;5052815;28;19935;-72
2023/06/21 10:31:19;;;;;;;;;;;;;;;26.35;44.62;101605.75;5037526;28;20297;-72
2023/06/21 10:33:44;;;;;;;;;;;;;;;26.35;44.73;101612.03;5042597;28;19917;-72
2023/06/21 10:36:10;;;;;;;;;;;;;;;26.35;44.63;101612.03;5046313;28;20378;-72
2023/06/21 10:38:41;;;;;;;;;;;;;;;26.37;44.55;101611.84;5039753;28;19917;-72
2023/06/21 10:41:06;;;;;;;;;;;;;;;26.37;44.79;101626.31;5042802;28;19917;-72
2023/06/21 10:43:32;;;;;;;;;;;;;;;26.38;44.71;101622.56;5040358;28;19917;-72
2023/06/21 10:45:57;;;;;;;;;;;;;;;26.38;44.74;101613.53;5041068;28;19921;-72
2023/06/21 10:48:23;;;;;;;;;;;;;;;26.40;44.74;101614.16;5040713;28;19936;-72
2023/06/21 10:50:48;;;;;;;;;;;;;;;26.40;44.48;101614.16;5065426;28;19947;-72
2023/06/21 10:53:17;;;;;;;;;;;;;;;26.41;44.66;101608.50;5032360;28;20433;-73
2023/06/21 10:55:42;;;;;;;;;;;;;;;26.42;44.68;101631.16;5051397;28;19963;-73
2023/06/21 10:58:07;;;;;;;;;;;;;;;26.41;44.80;101633.03;5039127;28;20020;-72
2023/06/21 11:00:32;;;;;;;;;;;;;;;26.42;44.55;101631.16;5040889;28;19909;-72
2023/06/21 11:02:57;;;;;;;;;;;;;;;26.42;44.60;101632.03;5049146;28;19913;-72
2023/06/21 11:05:23;;;;;;;;;;;;;;;26.43;44.51;101639.16;5045699;28;19964;-73
2023/06/21 11:07:49;;;;;;;;;;;;;;;26.45;44.70;101643.59;5060184;28;20000;-72
2023/06/21 11:10:14;;;;;;;;;;;;;;;26.45;44.70;101633.50;5041407;28;20441;-73
2023/06/21 11:12:39;;;;;;;;;;;;;;;26.46;44.57;101637.09;5057186;28;19913;-72
2023/06/21 11:15:05;;;;;;;;;;;;;;;26.46;44.42;101646.09;5041952;28;19926;-72
2023/06/21 11:17:30;;;;;;;;;;;;;;;26.46;44.79;101640.66;5047716;28;19980;-72
2023/06/21 11:19:57;;;;;;;;;;;;;;;26.48;44.61;101646.75;5035346;28;19914;-72
2023/06/21 11:22:24;;;;;;;;;;;;;;;26.49;44.56;101647.59;5033707;28;19939;-72
2023/06/21 11:24:57;;;;;;;;;;;;;;;26.50;44.42;101641.94;5059872;28;19924;-72
2023/06/21 11:27:25;;;;;;;;;;;;;;;26.52;44.54;101641.75;5034072;28;19918;-72
2023/06/21 11:30:00;;;;;;;;;;;;;;;26.53;44.44;101646.16;5053544;28;19913;-72
2023/06/21 11:32:29;;;;;;;;;;;;;;;26.55;44.46;101654.97;5041089;28;19913;-73
2023/06/21 11:34:56;;;;;;;;;;;;;;;26.58;44.34;101651.84;5051040;28;19921;-73
2023/06/21 11:37:41;;;;;;;;;;;;;;;26.59;44.30;101651.66;5051154;28;19913;-73
2023/06/21 11:40:06;;;;;;;;;;;;;;;26.61;44.64;101649.56;5047629;28;19917;-73
2023/06/21 11:42:34;;;;;;;;;;;;;;;26.63;44.32;101652.94;5045758;28;19985;-73
2023/06/21 11:45:32;;;;;;;;;;;;;;;26.66;44.30;101649.78;5035528;28;19981;-72
2023/06/21 11:48:13;;;;;;;;;;;;;;;26.67;44.67;101658.81;5039596;28;19913;-73
2023/06/21 11:50:42;;;;;;;;;;;;;;;26.69;44.43;101664.91;5049855;28;19919;-72
2023/06/21 11:53:13;;;;;;;;;;;;;;;26.70;44.46;101654.84;5038034;28;20331;-72
2023/06/21 11:55:39;;;;;;;;;;;;;;;26.71;44.29;101659.25;5047989;28;19920;-73
2023/06/21 11:58:06;;;;;;;;;;;;;;;26.72;44.37;101660.91;5047091;28;19913;-72
2023/06/21 12:00:31;;;;;;;;;;;;;;;26.74;44.33;101661.56;5040520;28;19913;-72
2023/06/21 12:02:57;;;;;;;;;;;;;;;26.75;44.56;101664.09;5050047;28;19924;-71
2023/06/21 12:05:22;;;;;;;;;;;;;;;26.76;44.44;101654.88;5042115;28;19924;-73
2023/06/21 12:07:47;;;;;;;;;;;;;;;26.79;44.24;101659.06;5043973;28;19920;-73
2023/06/21 12:10:12;;;;;;;;;;;;;;;26.80;44.13;101653.41;5047529;28;19918;-71
2023/06/21 12:12:37;;;;;;;;;;;;;;;26.82;44.33;101650.50;5047645;28;19914;-72
2023/06/21 12:15:03;;;;;;;;;;;;;;;26.83;44.33;101657.63;5048405;28;20026;-72
2023/06/21 12:17:28;;;;;;;;;;;;;;;26.83;44.16;101652.16;5051143;28;20413;-72
2023/06/21 12:19:56;;;;;;;;;;;;;;;26.84;44.18;101653.84;5043571;28;19920;-73
2023/06/21 12:22:22;;;;;;;;;;;;;;;26.83;44.30;101661.19;5046178;28;20011;-73
2023/06/21 12:24:47;;;;;;;;;;;;;;;26.85;44.29;101663.72;5049452;28;19914;-72
2023/06/21 12:27:13;;;;;;;;;;;;;;;26.86;44.33;101668.97;5036160;28;20313;-73
2023/06/21 12:29:40;;;;;;;;;;;;;;;26.87;44.26;101676.09;5051784;28;19913;-73